createdAt,value
2022-09-22T00:01:37.693Z,102105.00
2022-09-22T00:04:11.095Z,102100.75
2022-09-22T00:06:43.476Z,102100.75
2022-09-22T00:09:14.175Z,102104.84
2022-09-22T00:11:44.515Z,102103.16
2022-09-22T00:14:15.700Z,102099.78
2022-09-22T00:16:47.034Z,102107.47
2022-09-22T00:19:20.287Z,102110.91
2022-09-22T00:21:49.503Z,102104.53
2022-09-22T00:24:19.863Z,102110.78
2022-09-22T00:26:48.531Z,102109.31
2022-09-22T00:29:17.619Z,102105.47
2022-09-22T00:31:46.853Z,102108.84
2022-09-22T00:34:19.124Z,102099.53
2022-09-22T00:36:48.242Z,102107.63
2022-09-22T00:39:18.247Z,102100.97
2022-09-22T00:41:49.678Z,102101.13
2022-09-22T00:44:41.658Z,102106.94
2022-09-22T00:47:40.978Z,102106.69
2022-09-22T00:50:17.364Z,102098.03
2022-09-22T00:52:51.846Z,102095.81
2022-09-22T00:55:26.438Z,102091.88
2022-09-22T00:57:56.699Z,102097.41
2022-09-22T01:00:25.317Z,102086.97
2022-09-22T01:02:57.661Z,102087.81
2022-09-22T01:05:30.433Z,102082.25
2022-09-22T01:07:58.961Z,102086.50
2022-09-22T01:10:27.743Z,102087.16
2022-09-22T01:13:06.904Z,102085.47
2022-09-22T01:15:44.332Z,102082.25
2022-09-22T01:18:21.904Z,102077.13
2022-09-22T01:21:21.075Z,102077.19
2022-09-22T01:24:26.294Z,102073.78
2022-09-22T01:27:10.180Z,102074.47
2022-09-22T01:30:15.310Z,102074.94
2022-09-22T01:32:52.570Z,102069.59
2022-09-22T01:35:28.003Z,102069.81
2022-09-22T01:38:06.822Z,102060.78
2022-09-22T01:40:43.012Z,102063.63
2022-09-22T01:43:19.895Z,102064.72
2022-09-22T01:45:50.855Z,102065.81
2022-09-22T01:48:23.755Z,102059.63
2022-09-22T01:50:58.027Z,102062.22
2022-09-22T01:53:31.585Z,102053.28
2022-09-22T01:56:06.539Z,102056.66
2022-09-22T01:58:40.431Z,102049.53
2022-09-22T02:01:15.167Z,102051.03
2022-09-22T02:03:50.179Z,102046.69
2022-09-22T02:06:24.195Z,102044.00
2022-09-22T02:08:57.658Z,102044.38
2022-09-22T02:11:26.219Z,102036.75
2022-09-22T02:13:54.884Z,102032.03
2022-09-22T02:16:27.601Z,102044.00
2022-09-22T02:19:11.996Z,102037.34
2022-09-22T02:21:43.043Z,102031.41
2022-09-22T02:24:31.052Z,102028.44
2022-09-22T02:27:01.850Z,102034.00
2022-09-22T02:29:35.339Z,102031.66
2022-09-22T02:32:10.874Z,102029.97
2022-09-22T02:34:39.714Z,102030.44
2022-09-22T02:37:20.584Z,102037.28
2022-09-22T02:39:57.708Z,102038.13
2022-09-22T02:42:33.332Z,102028.31
2022-09-22T02:45:10.143Z,102022.94
2022-09-22T02:47:44.549Z,102027.66
2022-09-22T02:50:15.818Z,102021.31
2022-09-22T02:52:44.307Z,102030.09
2022-09-22T02:55:14.796Z,102023.50
2022-09-22T02:57:43.742Z,102013.69
2022-09-22T03:00:13.494Z,102023.50
2022-09-22T03:02:43.097Z,102013.94
2022-09-22T03:05:11.510Z,102016.25
2022-09-22T03:07:40.351Z,102013.75
2022-09-22T03:10:10.689Z,102009.03
2022-09-22T03:13:02.294Z,102017.56
2022-09-22T03:15:30.936Z,102014.16
2022-09-22T03:18:00.623Z,102010.75
2022-09-22T03:20:29.027Z,102012.84
2022-09-22T03:22:57.304Z,102012.44
2022-09-22T03:25:25.574Z,102007.00
2022-09-22T03:27:53.849Z,102004.63
2022-09-22T03:30:22.100Z,102004.22
2022-09-22T03:32:50.341Z,102002.09
2022-09-22T03:35:20.033Z,102007.00
2022-09-22T03:37:48.310Z,101995.75
2022-09-22T03:40:16.882Z,101994.03
2022-09-22T03:42:45.948Z,101999.56
2022-09-22T03:45:15.065Z,101999.63
2022-09-22T03:47:43.351Z,101994.28
2022-09-22T03:50:12.104Z,101990.84
2022-09-22T03:52:43.832Z,101992.59
2022-09-22T03:55:12.659Z,101999.63
2022-09-22T03:57:40.968Z,101992.19
2022-09-22T04:00:11.133Z,101994.13
2022-09-22T04:02:39.434Z,101987.03
2022-09-22T04:05:09.175Z,101989.22
2022-09-22T04:07:37.498Z,101974.69
2022-09-22T04:10:08.391Z,101980.88
2022-09-22T04:12:37.285Z,101976.44
2022-09-22T04:15:07.265Z,101978.81
2022-09-22T04:17:37.052Z,101975.84
2022-09-22T04:20:07.115Z,101982.63
2022-09-22T04:22:35.689Z,101982.63
2022-09-22T04:25:04.064Z,101985.28
2022-09-22T04:27:33.679Z,101986.34
2022-09-22T04:30:01.971Z,101982.09
2022-09-22T04:32:30.236Z,101981.03
2022-09-22T04:34:58.532Z,101984.50
2022-09-22T04:37:26.767Z,101983.19
2022-09-22T04:39:55.614Z,101980.81
2022-09-22T04:42:23.893Z,101981.25
2022-09-22T04:44:57.130Z,101976.16
2022-09-22T04:47:25.386Z,101975.53
2022-09-22T04:49:53.777Z,101974.66
2022-09-22T04:52:22.138Z,101976.81
2022-09-22T04:54:50.415Z,101975.97
2022-09-22T04:57:20.553Z,101979.41
2022-09-22T04:59:49.032Z,101978.56
2022-09-22T05:02:19.146Z,101979.63
2022-09-22T05:04:47.459Z,101978.59
2022-09-22T05:07:16.026Z,101983.91
2022-09-22T05:09:44.308Z,101978.59
2022-09-22T05:12:12.563Z,101985.19
2022-09-22T05:14:40.845Z,101983.06
2022-09-22T05:17:09.822Z,101983.28
2022-09-22T05:19:39.492Z,101989.91
2022-09-22T05:22:07.751Z,101984.34
2022-09-22T05:24:36.027Z,101982.22
2022-09-22T05:27:04.833Z,101993.75
2022-09-22T05:29:33.075Z,101998.22
2022-09-22T05:32:01.488Z,101995.03
2022-09-22T05:34:29.770Z,101995.47
2022-09-22T05:36:59.429Z,101984.38
2022-09-22T05:39:27.726Z,101991.78
2022-09-22T05:41:55.989Z,101997.34
2022-09-22T05:44:24.687Z,101988.81
2022-09-22T05:46:52.962Z,101992.88
2022-09-22T05:49:21.211Z,101988.63
2022-09-22T05:51:52.197Z,101993.00
2022-09-22T05:54:23.447Z,101990.41
2022-09-22T05:56:52.056Z,101997.50
2022-09-22T05:59:20.313Z,101994.13
2022-09-22T06:01:48.709Z,101989.03
2022-09-22T06:04:17.002Z,101996.81
2022-09-22T06:06:45.275Z,101999.06
2022-09-22T06:09:13.600Z,101994.47
2022-09-22T06:11:43.255Z,102002.50
2022-09-22T06:14:11.494Z,102007.00
2022-09-22T06:16:40.105Z,101996.81
2022-09-22T06:19:08.544Z,102008.84
2022-09-22T06:21:37.081Z,102002.50
2022-09-22T06:24:06.858Z,101999.22
2022-09-22T06:26:35.170Z,102002.44
2022-09-22T06:29:04.861Z,102002.72
2022-09-22T06:31:33.195Z,101998.53
2022-09-22T06:34:04.348Z,101993.78
2022-09-22T06:36:36.068Z,101994.88
2022-09-22T06:39:05.447Z,102000.31
2022-09-22T06:41:34.983Z,102002.00
2022-09-22T06:44:05.375Z,101996.25
2022-09-22T06:46:35.185Z,101994.66
2022-09-22T06:49:03.422Z,101994.53
2022-09-22T06:51:34.025Z,101993.69
2022-09-22T06:54:05.383Z,101993.41
2022-09-22T06:56:39.860Z,102002.97
2022-09-22T06:59:11.139Z,102007.84
2022-09-22T07:01:40.034Z,102007.84
2022-09-22T07:04:08.852Z,102009.94
2022-09-22T07:06:37.961Z,102005.09
2022-09-22T07:09:06.821Z,101995.72
2022-09-22T07:11:39.552Z,102005.94
2022-09-22T07:14:12.654Z,101990.50
2022-09-22T07:16:41.382Z,101997.25
2022-09-22T07:19:10.092Z,101996.69
2022-09-22T07:21:38.424Z,101997.81
2022-09-22T07:24:08.711Z,101991.97
2022-09-22T07:26:40.612Z,101993.31
2022-09-22T07:29:13.387Z,101996.88
2022-09-22T07:31:43.378Z,101988.03
2022-09-22T07:34:12.802Z,101987.63
2022-09-22T07:36:41.676Z,101989.63
2022-09-22T07:39:11.541Z,101987.19
2022-09-22T07:41:43.124Z,101988.19
2022-09-22T07:44:34.791Z,101990.00
2022-09-22T07:47:04.839Z,101986.78
2022-09-22T07:49:33.688Z,101984.47
2022-09-22T07:52:02.009Z,101986.56
2022-09-22T07:54:30.717Z,101990.66
2022-09-22T07:56:59.356Z,101989.97
2022-09-22T07:59:29.048Z,102004.31
2022-09-22T08:01:57.372Z,101989.66
2022-09-22T08:04:26.452Z,101985.78
2022-09-22T08:06:56.413Z,101985.94
2022-09-22T08:09:26.053Z,101977.44
2022-09-22T08:11:55.154Z,101983.09
2022-09-22T08:14:24.243Z,101985.88
2022-09-22T08:16:54.689Z,101979.34
2022-09-22T08:19:24.705Z,101988.25
2022-09-22T08:21:54.851Z,101988.56
2022-09-22T08:24:24.160Z,101985.63
2022-09-22T08:26:55.820Z,101986.81
2022-09-22T08:29:24.868Z,101979.13
2022-09-22T08:31:54.715Z,101979.13
2022-09-22T08:34:23.207Z,101981.69
2022-09-22T08:36:51.515Z,101978.00
2022-09-22T08:39:20.003Z,101979.25
2022-09-22T08:42:05.940Z,101988.28
2022-09-22T08:44:42.611Z,101991.44
2022-09-22T08:47:41.516Z,101990.31
2022-09-22T08:50:59.394Z,101986.06
2022-09-22T08:53:32.323Z,101990.03
2022-09-22T08:56:14.547Z,101985.50
2022-09-22T08:58:49.472Z,101987.34
2022-09-22T09:01:43.853Z,101994.16
2022-09-22T09:04:56.191Z,101990.50
2022-09-22T09:07:37.240Z,101983.41
2022-09-22T09:10:28.341Z,101983.47
2022-09-22T09:13:23.119Z,101986.69
2022-09-22T09:16:08.514Z,101983.56
2022-09-22T09:18:42.773Z,101990.66
2022-09-22T09:21:16.640Z,101982.88
2022-09-22T09:26:37.338Z,101990.59
2022-09-22T09:29:12.293Z,101988.28
2022-09-22T09:31:46.248Z,101984.50
2022-09-22T09:34:17.839Z,101985.06
2022-09-22T09:36:51.262Z,101984.06
2022-09-22T09:39:32.873Z,101973.81
2022-09-22T09:42:02.981Z,101976.41
2022-09-22T09:44:40.089Z,101972.81
2022-09-22T09:47:19.596Z,101967.53
2022-09-22T09:49:52.669Z,101971.06
2022-09-22T09:52:26.775Z,101971.84
2022-09-22T09:54:56.320Z,101964.97
2022-09-22T09:57:28.216Z,101963.22
2022-09-22T10:00:31.770Z,101962.34
2022-09-22T10:03:13.490Z,101957.44
2022-09-22T10:05:41.920Z,101955.56
2022-09-22T10:08:21.145Z,101953.66
2022-09-22T10:10:49.890Z,101939.38
2022-09-22T10:13:32.181Z,101943.84
2022-09-22T10:16:23.207Z,101944.44
2022-09-22T10:19:03.000Z,101941.78
2022-09-22T10:21:31.380Z,101932.72
2022-09-22T10:24:02.336Z,101929.81
2022-09-22T10:26:33.155Z,101936.06
2022-09-22T10:29:16.710Z,101930.16
2022-09-22T10:32:06.431Z,101929.84
2022-09-22T10:34:37.924Z,101924.06
2022-09-22T10:37:10.714Z,101922.59
2022-09-22T10:39:47.109Z,101929.03
2022-09-22T10:42:32.665Z,101923.34
2022-09-22T10:45:07.058Z,101927.41
2022-09-22T10:47:51.387Z,101923.22
2022-09-22T10:50:50.439Z,101921.13
2022-09-22T10:53:51.658Z,101919.31
2022-09-22T10:56:33.067Z,101914.75
2022-09-22T10:59:42.987Z,101915.25
2022-09-22T11:02:44.918Z,101905.31
2022-09-22T11:06:01.516Z,101920.50
2022-09-22T11:08:56.165Z,101906.75
2022-09-22T11:11:51.329Z,101905.41
2022-09-22T11:14:36.327Z,101903.56
2022-09-22T11:17:22.095Z,101906.00
2022-09-22T11:20:14.045Z,101902.88
2022-09-22T11:23:07.405Z,101893.41
2022-09-22T11:25:58.708Z,101895.47
2022-09-22T11:28:47.530Z,101892.50
2022-09-22T11:31:28.695Z,101884.81
2022-09-22T11:34:27.615Z,101880.59
2022-09-22T11:37:25.678Z,101883.59
2022-09-22T11:40:28.093Z,101876.25
2022-09-22T11:43:11.360Z,101872.00
2022-09-22T11:45:53.158Z,101863.38
2022-09-22T11:48:39.323Z,101870.34
2022-09-22T11:51:28.727Z,101868.28
2022-09-22T11:54:22.948Z,101863.41
2022-09-22T11:56:55.896Z,101861.16
2022-09-22T11:59:38.593Z,101850.31
2022-09-22T12:02:22.392Z,101851.38
2022-09-22T12:04:57.320Z,101849.97
2022-09-22T12:07:30.224Z,101835.03
2022-09-22T12:10:02.084Z,101833.75
2022-09-22T12:12:33.203Z,101834.03
2022-09-22T12:15:16.663Z,101833.44
2022-09-22T12:17:52.725Z,101825.47
2022-09-22T12:20:37.427Z,101821.03
2022-09-22T12:23:19.962Z,101818.19
2022-09-22T12:25:54.051Z,101829.72
2022-09-22T12:28:26.827Z,101823.03
2022-09-22T12:31:06.055Z,101807.91
2022-09-22T12:33:38.716Z,101812.00
2022-09-22T12:36:08.315Z,101807.69
2022-09-22T12:38:37.319Z,101809.25
2022-09-22T12:41:06.617Z,101805.72
2022-09-22T12:43:36.609Z,101803.09
2022-09-22T12:46:27.904Z,101799.50
2022-09-22T12:48:57.941Z,101802.94
2022-09-22T12:51:33.275Z,101799.28
2022-09-22T12:54:41.325Z,101793.81
2022-09-22T12:57:31.373Z,101794.63
2022-09-22T13:00:32.219Z,101791.94
2022-09-22T13:03:23.906Z,101793.16
2022-09-22T13:05:54.809Z,101793.69
2022-09-22T13:08:47.171Z,101786.56
2022-09-22T13:11:15.537Z,101788.44
2022-09-22T13:13:47.891Z,101784.16
2022-09-22T13:16:36.662Z,101783.59
2022-09-22T13:19:14.857Z,101774.63
2022-09-22T13:21:44.480Z,101780.75
2022-09-22T13:24:27.382Z,101779.13
2022-09-22T13:27:05.852Z,101772.19
2022-09-22T13:29:35.026Z,101767.91
2022-09-22T13:32:26.683Z,101756.13
2022-09-22T13:34:55.463Z,101760.19
2022-09-22T13:37:25.880Z,101750.50
2022-09-22T13:39:55.622Z,101746.06
2022-09-22T13:42:32.502Z,101751.41
2022-09-22T13:45:06.427Z,101743.72
2022-09-22T13:47:36.001Z,101740.44
2022-09-22T13:50:08.194Z,101741.72
2022-09-22T13:52:40.429Z,101743.84
2022-09-22T13:55:14.972Z,101742.91
2022-09-22T13:57:43.808Z,101738.16
2022-09-22T14:00:24.591Z,101733.00
2022-09-22T14:02:53.835Z,101731.56
2022-09-22T14:05:26.897Z,101727.00
2022-09-22T14:08:17.190Z,101726.84
2022-09-22T14:10:49.464Z,101723.38
2022-09-22T14:13:44.717Z,101714.78
2022-09-22T14:16:22.282Z,101720.50
2022-09-22T14:18:54.883Z,101713.06
2022-09-22T14:21:23.616Z,101712.56
2022-09-22T14:23:53.621Z,101709.28
2022-09-22T14:26:33.398Z,101709.78
2022-09-22T14:29:15.819Z,101705.44
2022-09-22T14:31:48.213Z,101703.59
2022-09-22T14:34:24.597Z,101709.03
2022-09-22T14:36:54.779Z,101699.78
2022-09-22T14:39:31.872Z,101707.97
2022-09-22T14:42:11.824Z,101701.91
2022-09-22T14:44:45.737Z,101696.06
2022-09-22T14:47:27.351Z,101691.09
2022-09-22T14:50:19.193Z,101688.72
2022-09-22T14:53:01.130Z,101688.59
2022-09-22T14:55:35.932Z,101681.94
2022-09-22T14:58:09.610Z,101683.16
2022-09-22T15:00:55.468Z,101684.59
2022-09-22T15:03:29.928Z,101681.22
2022-09-22T15:06:08.924Z,101677.41
2022-09-22T15:08:37.824Z,101678.41
2022-09-22T15:11:08.061Z,101670.75
2022-09-22T15:13:41.777Z,101674.69
2022-09-22T15:16:37.827Z,101665.69
2022-09-22T15:19:07.854Z,101669.38
2022-09-22T15:21:47.464Z,101662.03
2022-09-22T15:24:21.195Z,101659.50
2022-09-22T15:26:50.864Z,101655.72
2022-09-22T15:29:19.102Z,101658.03
2022-09-22T15:31:47.806Z,101642.53
2022-09-22T15:34:16.516Z,101651.81
2022-09-22T15:36:50.049Z,101647.88
2022-09-22T15:39:23.114Z,101638.94
2022-09-22T15:41:54.351Z,101657.91
2022-09-22T15:44:22.817Z,101644.06
2022-09-22T15:46:54.480Z,101640.03
2022-09-22T15:49:26.510Z,101636.72
2022-09-22T15:51:56.567Z,101629.84
2022-09-22T15:54:26.183Z,101632.97
2022-09-22T15:56:57.566Z,101627.44
2022-09-22T15:59:28.969Z,101621.16
2022-09-22T16:01:59.494Z,101621.91
2022-09-22T16:04:34.254Z,101626.06
2022-09-22T16:07:08.485Z,101625.16
2022-09-22T16:09:38.654Z,101627.41
2022-09-22T16:12:11.150Z,101623.81
2022-09-22T16:14:41.561Z,101622.00
2022-09-22T16:17:09.784Z,101618.97
2022-09-22T16:19:38.056Z,101626.09
2022-09-22T16:22:06.351Z,101619.22
2022-09-22T16:24:34.590Z,101627.06
2022-09-22T16:27:04.162Z,101618.91
2022-09-22T16:29:37.430Z,101620.56
2022-09-22T16:32:05.881Z,101609.09
2022-09-22T16:34:34.887Z,101617.63
2022-09-22T16:37:03.501Z,101617.84
2022-09-22T16:39:31.779Z,101613.81
2022-09-22T16:42:00.025Z,101614.06
2022-09-22T16:44:28.298Z,101612.47
2022-09-22T16:46:58.447Z,101617.81
2022-09-22T16:49:27.124Z,101605.56
2022-09-22T16:51:55.602Z,101610.41
2022-09-22T16:54:24.794Z,101604.81
2022-09-22T16:56:54.275Z,101605.03
2022-09-22T16:59:24.211Z,101608.50
2022-09-22T17:01:52.587Z,101604.03
2022-09-22T17:04:22.290Z,101604.25
2022-09-22T17:06:50.869Z,101607.63
2022-09-22T17:09:19.582Z,101612.16
2022-09-22T17:11:49.368Z,101610.75
2022-09-22T17:14:21.175Z,101608.25
2022-09-22T17:16:52.139Z,101607.41
2022-09-22T17:19:23.943Z,101609.47
2022-09-22T17:21:55.199Z,101610.31
2022-09-22T17:24:25.047Z,101610.03
2022-09-22T17:26:55.870Z,101608.66
2022-09-22T17:29:26.693Z,101613.94
2022-09-22T17:31:57.633Z,101611.09
2022-09-22T17:34:28.725Z,101599.78
2022-09-22T17:36:57.326Z,101603.16
2022-09-22T17:39:27.093Z,101608.19
2022-09-22T17:41:55.707Z,101606.03
2022-09-22T17:44:28.520Z,101602.66
2022-09-22T17:47:14.784Z,101598.47
2022-09-22T17:50:02.089Z,101597.28
2022-09-22T17:52:47.640Z,101601.44
2022-09-22T17:55:22.541Z,101604.75
2022-09-22T17:57:52.697Z,101597.47
2022-09-22T18:00:23.497Z,101609.50
2022-09-22T18:02:54.929Z,101610.53
2022-09-22T18:05:27.339Z,101604.44
2022-09-22T18:07:58.521Z,101605.84
2022-09-22T18:10:34.233Z,101611.13
2022-09-22T18:13:04.339Z,101612.53
2022-09-22T18:15:32.646Z,101615.88
2022-09-22T18:18:00.912Z,101606.97
2022-09-22T18:20:34.953Z,101613.84
2022-09-22T18:23:03.681Z,101610.81
2022-09-22T18:25:33.941Z,101612.13
2022-09-22T18:28:03.926Z,101611.28
2022-09-22T18:30:33.139Z,101611.28
2022-09-22T18:33:01.996Z,101615.19
2022-09-22T18:35:31.860Z,101606.22
2022-09-22T18:38:00.338Z,101609.53
2022-09-22T18:40:30.149Z,101609.56
2022-09-22T18:42:58.430Z,101597.34
2022-09-22T18:45:27.111Z,101603.34
2022-09-22T18:47:59.471Z,101602.47
2022-09-22T18:50:35.692Z,101604.69
2022-09-22T18:53:05.635Z,101598.47
2022-09-22T18:55:33.901Z,101604.31
2022-09-22T18:58:02.298Z,101598.75
2022-09-22T19:00:31.539Z,101596.25
2022-09-22T19:03:00.294Z,101597.59
2022-09-22T19:05:28.738Z,101593.13
2022-09-22T19:08:00.408Z,101596.25
2022-09-22T19:10:30.023Z,101599.88
2022-09-22T19:12:59.606Z,101600.41
2022-09-22T19:15:28.108Z,101594.53
2022-09-22T19:17:56.341Z,101603.97
2022-09-22T19:20:24.934Z,101598.13
2022-09-22T19:22:54.082Z,101597.81
2022-09-22T19:25:23.570Z,101596.38
2022-09-22T19:27:54.172Z,101601.38
2022-09-22T19:30:25.773Z,101598.94
2022-09-22T19:32:56.877Z,101598.03
2022-09-22T19:35:25.478Z,101599.06
2022-09-22T19:37:53.792Z,101591.59
2022-09-22T19:40:24.422Z,101592.66
2022-09-22T19:42:55.238Z,101592.38
2022-09-22T19:45:25.001Z,101590.09
2022-09-22T19:47:56.328Z,101579.16
2022-09-22T19:50:24.899Z,101592.56
2022-09-22T19:52:53.510Z,101590.28
2022-09-22T19:55:22.120Z,101587.47
2022-09-22T19:57:52.333Z,101581.81
2022-09-22T20:00:26.051Z,101579.84
2022-09-22T20:02:58.644Z,101582.69
2022-09-22T20:05:31.573Z,101580.63
2022-09-22T20:07:59.962Z,101578.69
2022-09-22T20:10:28.850Z,101577.88
2022-09-22T20:12:57.105Z,101575.88
2022-09-22T20:15:28.080Z,101572.50
2022-09-22T20:17:56.342Z,101572.47
2022-09-22T20:20:26.963Z,101563.88
2022-09-22T20:23:00.488Z,101568.88
2022-09-22T20:25:31.860Z,101565.50
2022-09-22T20:28:00.403Z,101566.81
2022-09-22T20:30:30.066Z,101565.66
2022-09-22T20:32:59.085Z,101564.41
2022-09-22T20:35:27.669Z,101561.06
2022-09-22T20:37:59.291Z,101570.00
2022-09-22T20:40:29.120Z,101568.06
2022-09-22T20:42:58.093Z,101563.66
2022-09-22T20:45:27.322Z,101560.28
2022-09-22T20:47:57.101Z,101552.69
2022-09-22T20:50:25.647Z,101561.31
2022-09-22T20:52:55.420Z,101556.00
2022-09-22T20:55:23.827Z,101556.09
2022-09-22T20:57:52.544Z,101555.06
2022-09-22T21:00:21.052Z,101557.00
2022-09-22T21:02:49.395Z,101552.47
2022-09-22T21:05:19.411Z,101552.75
2022-09-22T21:07:47.647Z,101551.88
2022-09-22T21:10:33.384Z,101548.00
2022-09-22T21:13:04.030Z,101548.75
2022-09-22T21:15:32.302Z,101551.56
2022-09-22T21:18:00.610Z,101548.44
2022-09-22T21:20:30.256Z,101545.53
2022-09-22T21:22:58.508Z,101548.06
2022-09-22T21:25:26.780Z,101550.53
2022-09-22T21:27:55.017Z,101547.16
2022-09-22T21:30:24.337Z,101548.59
2022-09-22T21:32:52.557Z,101552.72
2022-09-22T21:35:20.905Z,101553.75
2022-09-22T21:37:50.656Z,101550.72
2022-09-22T21:40:19.164Z,101549.53
2022-09-22T21:42:47.465Z,101541.09
2022-09-22T21:45:15.971Z,101538.88
2022-09-22T21:47:44.552Z,101543.09
2022-09-22T21:50:12.935Z,101531.91
2022-09-22T21:52:41.192Z,101525.72
2022-09-22T21:55:11.171Z,101527.03
2022-09-22T21:57:39.384Z,101533.94
2022-09-22T22:00:09.998Z,101521.69
2022-09-22T22:02:58.752Z,101516.13
2022-09-22T22:05:30.257Z,101521.38
2022-09-22T22:07:58.602Z,101513.84
2022-09-22T22:10:28.313Z,101514.09
2022-09-22T22:12:56.665Z,101520.00
2022-09-22T22:15:25.033Z,101516.81
2022-09-22T22:17:55.564Z,101507.59
2022-09-22T22:20:24.391Z,101509.22
2022-09-22T22:22:52.618Z,101508.38
2022-09-22T22:25:20.876Z,101506.44
2022-09-22T22:27:50.497Z,101502.81
2022-09-22T22:30:19.172Z,101502.53
2022-09-22T22:32:47.624Z,101501.66
2022-09-22T22:35:16.098Z,101497.75
2022-09-22T22:37:45.766Z,101497.16
2022-09-22T22:40:14.185Z,101495.09
2022-09-22T22:42:42.475Z,101502.41
2022-09-22T22:45:12.404Z,101501.88
2022-09-22T22:47:40.672Z,101492.13
2022-09-22T22:50:10.984Z,101497.50
2022-09-22T22:52:42.197Z,101499.72
2022-09-22T22:55:10.811Z,101493.66
2022-09-22T22:57:39.048Z,101492.22
2022-09-22T23:00:09.326Z,101489.09
2022-09-22T23:02:39.379Z,101482.50
2022-09-22T23:05:09.022Z,101489.25
2022-09-22T23:07:38.313Z,101483.94
2022-09-22T23:10:08.109Z,101487.66
2022-09-22T23:12:40.255Z,101486.47
2022-09-22T23:15:10.707Z,101487.56
2022-09-22T23:17:40.462Z,101485.00
2022-09-22T23:20:10.205Z,101486.47
2022-09-22T23:22:38.458Z,101483.94
2022-09-22T23:25:07.390Z,101474.66
2022-09-22T23:27:35.614Z,101472.38
2022-09-22T23:30:03.963Z,101471.44
2022-09-22T23:32:32.190Z,101472.13
2022-09-22T23:35:01.794Z,101467.22
2022-09-22T23:37:30.063Z,101471.44
2022-09-22T23:39:58.361Z,101461.41
2022-09-22T23:42:26.647Z,101458.34
2022-09-22T23:44:54.901Z,101463.34
2022-09-22T23:47:23.154Z,101455.56
2022-09-22T23:49:51.409Z,101454.16
2022-09-22T23:52:22.517Z,101450.78
2022-09-22T23:54:51.052Z,101450.25
2022-09-22T23:57:19.269Z,101450.78
2022-09-22T23:59:47.537Z,101454.91
